sensor_id;sensor_type;location;lat;lon;timestamp;pressure;altitude;pressure_sealevel;temperature;humidity
20015;BME280;61787;42.022;23.078;2023-04-01T00:00:00;95931.09;;;12.93;57.53
20015;BME280;61787;42.022;23.078;2023-04-01T00:01:03;95936.84;;;12.92;58.20
20015;BME280;61787;42.022;23.078;2023-04-01T00:02:06;95932.63;;;12.91;58.05
20015;BME280;61787;42.022;23.078;2023-04-01T00:03:07;95934.53;;;12.90;57.85
20015;BME280;61787;42.022;23.078;2023-04-01T00:04:09;95930.28;;;12.89;58.16
20015;BME280;61787;42.022;23.078;2023-04-01T00:05:11;95934.53;;;12.90;58.10
20015;BME280;61787;42.022;23.078;2023-04-01T00:06:14;95926.44;;;12.90;57.98
20015;BME280;61787;42.022;23.078;2023-04-01T00:07:16;95934.56;;;12.94;58.21
20015;BME280;61787;42.022;23.078;2023-04-01T00:08:18;95928.78;;;12.92;57.79
20015;BME280;61787;42.022;23.078;2023-04-01T00:09:20;95933.41;;;12.95;58.04
20015;BME280;61787;42.022;23.078;2023-04-01T00:10:21;95934.19;;;12.95;57.54
20015;BME280;61787;42.022;23.078;2023-04-01T00:11:23;95938.78;;;12.95;57.72
20015;BME280;61787;42.022;23.078;2023-04-01T00:12:25;95938.03;;;12.94;57.81
20015;BME280;61787;42.022;23.078;2023-04-01T00:13:26;95933.78;;;12.93;58.10
20015;BME280;61787;42.022;23.078;2023-04-01T00:14:28;95936.47;;;12.93;58.29
20015;BME280;61787;42.022;23.078;2023-04-01T00:15:31;95934.56;;;12.94;57.91
20015;BME280;61787;42.022;23.078;2023-04-01T00:16:33;95936.88;;;12.95;57.68
20015;BME280;61787;42.022;23.078;2023-04-01T00:17:34;95944.97;;;12.95;57.81
20015;BME280;61787;42.022;23.078;2023-04-01T00:18:37;95944.53;;;12.93;58.13
20015;BME280;61787;42.022;23.078;2023-04-01T00:19:38;95939.16;;;12.93;57.89
20015;BME280;61787;42.022;23.078;2023-04-01T00:20:47;95937.63;;;12.92;57.83
20015;BME280;61787;42.022;23.078;2023-04-01T00:21:49;95936.47;;;12.93;58.33
20015;BME280;61787;42.022;23.078;2023-04-01T00:22:51;95924.97;;;12.96;59.01
20015;BME280;61787;42.022;23.078;2023-04-01T00:23:53;95928.84;;;12.99;58.29
20015;BME280;61787;42.022;23.078;2023-04-01T00:24:54;95927.69;;;13.00;58.95
20015;BME280;61787;42.022;23.078;2023-04-01T00:25:59;95920.06;;;13.05;59.46
20015;BME280;61787;42.022;23.078;2023-04-01T00:27:02;95925.88;;;13.07;59.10
20015;BME280;61787;42.022;23.078;2023-04-01T00:28:04;95930.84;;;13.05;58.92
20015;BME280;61787;42.022;23.078;2023-04-01T00:29:05;95925.88;;;13.07;59.56
20015;BME280;61787;42.022;23.078;2023-04-01T00:30:08;95922.88;;;13.12;59.12
20015;BME280;61787;42.022;23.078;2023-04-01T00:31:11;95925.94;;;13.14;59.41
20015;BME280;61787;42.022;23.078;2023-04-01T00:32:13;95921.34;;;13.18;59.72
20015;BME280;61787;42.022;23.078;2023-04-01T00:33:15;95926.81;;;13.22;59.52
20015;BME280;61787;42.022;23.078;2023-04-01T00:34:16;95926.03;;;13.21;59.13
20015;BME280;61787;42.022;23.078;2023-04-01T00:35:18;95926.81;;;13.26;59.45
20015;BME280;61787;42.022;23.078;2023-04-01T00:36:21;95926.47;;;13.27;59.51
20015;BME280;61787;42.022;23.078;2023-04-01T00:37:23;95929.84;;;13.20;59.33
20015;BME280;61787;42.022;23.078;2023-04-01T00:38:25;95934.78;;;13.15;59.38
20015;BME280;61787;42.022;23.078;2023-04-01T00:39:31;95928.25;;;13.12;59.76
20015;BME280;61787;42.022;23.078;2023-04-01T00:40:38;95935.16;;;13.13;60.17
20015;BME280;61787;42.022;23.078;2023-04-01T00:41:40;95934.72;;;13.08;60.22
20015;BME280;61787;42.022;23.078;2023-04-01T00:42:42;95930.41;;;13.03;60.40
20015;BME280;61787;42.022;23.078;2023-04-01T00:43:47;95936.56;;;13.00;60.60
20015;BME280;61787;42.022;23.078;2023-04-01T00:44:53;95937.31;;;12.97;60.79
20015;BME280;61787;42.022;23.078;2023-04-01T00:45:55;95936.13;;;12.98;61.17
20015;BME280;61787;42.022;23.078;2023-04-01T00:46:57;95932.69;;;12.98;60.78
20015;BME280;61787;42.022;23.078;2023-04-01T00:48:03;95928.06;;;12.98;60.74
20015;BME280;61787;42.022;23.078;2023-04-01T00:49:06;95925.38;;;12.98;60.84
20015;BME280;61787;42.022;23.078;2023-04-01T00:50:08;95924.22;;;12.99;60.99
20015;BME280;61787;42.022;23.078;2023-04-01T00:51:30;95926.16;;;12.99;61.34
20015;BME280;61787;42.022;23.078;2023-04-01T00:52:31;95921.16;;;12.97;61.12
20015;BME280;61787;42.022;23.078;2023-04-01T00:53:38;95917.69;;;12.97;61.86
20015;BME280;61787;42.022;23.078;2023-04-01T00:54:43;95920.00;;;12.98;61.69
20015;BME280;61787;42.022;23.078;2023-04-01T00:55:51;95915.78;;;12.97;61.18
20015;BME280;61787;42.022;23.078;2023-04-01T00:57:19;95906.94;;;12.97;61.60
20015;BME280;61787;42.022;23.078;2023-04-01T00:58:25;95916.09;;;12.92;61.43
20015;BME280;61787;42.022;23.078;2023-04-01T00:59:33;95914.50;;;12.88;61.88
20015;BME280;61787;42.022;23.078;2023-04-01T01:00:36;95909.91;;;12.88;62.23
20015;BME280;61787;42.022;23.078;2023-04-01T01:01:38;95911.81;;;12.88;61.71
20015;BME280;61787;42.022;23.078;2023-04-01T01:02:41;95909.50;;;12.86;61.63
20015;BME280;61787;42.022;23.078;2023-04-01T01:03:44;95904.06;;;12.82;61.91
20015;BME280;61787;42.022;23.078;2023-04-01T01:04:46;95900.63;;;12.82;62.31
20015;BME280;61787;42.022;23.078;2023-04-01T01:08:46;95900.97;;;12.77;62.46
20015;BME280;61787;42.022;23.078;2023-04-01T01:10:17;95904.78;;;12.76;62.20
20015;BME280;61787;42.022;23.078;2023-04-01T01:11:29;95895.59;;;12.77;62.85
20015;BME280;61787;42.022;23.078;2023-04-01T01:15:25;95891.81;;;12.85;62.21
20015;BME280;61787;42.022;23.078;2023-04-01T01:16:30;95893.75;;;12.88;61.79
20015;BME280;61787;42.022;23.078;2023-04-01T01:19:04;95888.91;;;13.04;62.61
20015;BME280;61787;42.022;23.078;2023-04-01T01:22:04;95893.16;;;13.05;61.71
20015;BME280;61787;42.022;23.078;2023-04-01T01:26:24;95884.25;;;12.98;62.21
20015;BME280;61787;42.022;23.078;2023-04-01T01:27:38;95886.13;;;12.94;62.09
20015;BME280;61787;42.022;23.078;2023-04-01T01:28:47;95885.75;;;12.95;62.07
20015;BME280;61787;42.022;23.078;2023-04-01T01:30:28;95881.50;;;12.94;62.06
20015;BME280;61787;42.022;23.078;2023-04-01T01:31:26;95891.06;;;12.88;62.09
20015;BME280;61787;42.022;23.078;2023-04-01T01:35:20;95886.41;;;12.81;61.70
20015;BME280;61787;42.022;23.078;2023-04-01T01:36:28;95886.41;;;12.81;61.63
20015;BME280;61787;42.022;23.078;2023-04-01T01:37:32;95879.91;;;12.86;61.51
20015;BME280;61787;42.022;23.078;2023-04-01T01:38:34;95887.19;;;12.82;61.38
20015;BME280;61787;42.022;23.078;2023-04-01T01:39:37;95880.63;;;12.83;61.21
20015;BME280;61787;42.022;23.078;2023-04-01T01:40:43;95884.06;;;12.80;61.70
20015;BME280;61787;42.022;23.078;2023-04-01T01:41:47;95886.28;;;12.71;62.07
20015;BME280;61787;42.022;23.078;2023-04-01T01:42:53;95881.63;;;12.68;62.45
20015;BME280;61787;42.022;23.078;2023-04-01T01:43:56;95878.56;;;12.66;62.50
20015;BME280;61787;42.022;23.078;2023-04-01T01:45:00;95877.00;;;12.65;62.63
20015;BME280;61787;42.022;23.078;2023-04-01T01:46:16;95881.25;;;12.66;62.59
20015;BME280;61787;42.022;23.078;2023-04-01T01:47:20;95878.56;;;12.66;62.37
20015;BME280;61787;42.022;23.078;2023-04-01T01:48:24;95877.00;;;12.65;62.72
20015;BME280;61787;42.022;23.078;2023-04-01T01:49:28;95871.63;;;12.65;62.12
20015;BME280;61787;42.022;23.078;2023-04-01T01:50:32;95870.50;;;12.66;62.65
20015;BME280;61787;42.022;23.078;2023-04-01T01:51:34;95873.97;;;12.70;61.82
20015;BME280;61787;42.022;23.078;2023-04-01T01:52:36;95876.34;;;12.75;61.98
20015;BME280;61787;42.022;23.078;2023-04-01T01:53:38;95870.97;;;12.75;61.87
20015;BME280;61787;42.022;23.078;2023-04-01T01:54:53;95875.53;;;12.71;62.56
20015;BME280;61787;42.022;23.078;2023-04-01T01:55:55;95873.97;;;12.70;62.59
20015;BME280;61787;42.022;23.078;2023-04-01T01:57:08;95877.41;;;12.67;62.22
20015;BME280;61787;42.022;23.078;2023-04-01T01:58:20;95870.88;;;12.68;61.99
20015;BME280;61787;42.022;23.078;2023-04-01T01:59:24;95860.91;;;12.68;62.53
20015;BME280;61787;42.022;23.078;2023-04-01T02:00:27;95868.59;;;12.70;62.38
20015;BME280;61787;42.022;23.078;2023-04-01T02:01:31;95863.22;;;12.70;62.68
20015;BME280;61787;42.022;23.078;2023-04-01T02:02:34;95870.16;;;12.71;63.03
20015;BME280;61787;42.022;23.078;2023-04-01T02:03:37;95868.59;;;12.70;62.69
20015;BME280;61787;42.022;23.078;2023-04-01T02:04:42;95864.78;;;12.71;62.33
20015;BME280;61787;42.022;23.078;2023-04-01T02:05:46;95860.91;;;12.68;62.49
20015;BME280;61787;42.022;23.078;2023-04-01T02:07:03;95860.09;;;12.64;62.33
20015;BME280;61787;42.022;23.078;2023-04-01T02:08:42;95863.97;;;12.67;62.11
20015;BME280;61787;42.022;23.078;2023-04-01T02:09:45;95853.56;;;12.62;62.61
20015;BME280;61787;42.022;23.078;2023-04-01T02:10:56;95860.09;;;12.64;62.86
20015;BME280;61787;42.022;23.078;2023-04-01T02:12:06;95863.56;;;12.65;62.98
20015;BME280;61787;42.022;23.078;2023-04-01T02:13:18;95855.50;;;12.65;63.06
20015;BME280;61787;42.022;23.078;2023-04-01T02:14:26;95860.13;;;12.68;63.45
20015;BME280;61787;42.022;23.078;2023-04-01T02:15:31;95847.84;;;12.67;63.02
20015;BME280;61787;42.022;23.078;2023-04-01T02:16:40;95848.56;;;12.64;62.83
20015;BME280;61787;42.022;23.078;2023-04-01T02:17:45;95845.16;;;12.67;62.83
20015;BME280;61787;42.022;23.078;2023-04-01T02:18:51;95838.16;;;12.62;63.82
20015;BME280;61787;42.022;23.078;2023-04-01T02:20:01;95849.25;;;12.57;64.05
20015;BME280;61787;42.022;23.078;2023-04-01T02:21:07;95835.41;;;12.55;64.26
20015;BME280;61787;42.022;23.078;2023-04-01T02:22:13;95846.16;;;12.55;63.82
20015;BME280;61787;42.022;23.078;2023-04-01T02:23:18;95843.03;;;12.50;64.60
20015;BME280;61787;42.022;23.078;2023-04-01T02:24:20;95841.50;;;12.49;64.27
20015;BME280;61787;42.022;23.078;2023-04-01T02:25:27;95837.25;;;12.48;64.26
20015;BME280;61787;42.022;23.078;2023-04-01T02:26:29;95833.78;;;12.47;64.11
20015;BME280;61787;42.022;23.078;2023-04-01T02:27:31;95841.50;;;12.49;64.98
20015;BME280;61787;42.022;23.078;2023-04-01T02:28:34;95833.06;;;12.50;65.32
20015;BME280;61787;42.022;23.078;2023-04-01T02:29:38;95844.59;;;12.51;64.73
20015;BME280;61787;42.022;23.078;2023-04-01T02:30:41;95840.00;;;12.51;64.65
20015;BME280;61787;42.022;23.078;2023-04-01T02:31:44;95831.53;;;12.53;65.09
20015;BME280;61787;42.022;23.078;2023-04-01T02:32:46;95838.47;;;12.54;65.14
20015;BME280;61787;42.022;23.078;2023-04-01T02:33:48;95833.88;;;12.54;65.03
20015;BME280;61787;42.022;23.078;2023-04-01T02:34:51;95823.84;;;12.51;65.07
20015;BME280;61787;42.022;23.078;2023-04-01T02:35:53;95824.66;;;12.55;65.46
20015;BME280;61787;42.022;23.078;2023-04-01T02:36:55;95828.19;;;12.63;65.29
20015;BME280;61787;42.022;23.078;2023-04-01T02:37:58;95830.16;;;12.66;65.33
20015;BME280;61787;42.022;23.078;2023-04-01T02:39:00;95828.59;;;12.65;65.05
20015;BME280;61787;42.022;23.078;2023-04-01T02:40:05;95826.31;;;12.67;65.53
20015;BME280;61787;42.022;23.078;2023-04-01T02:41:11;95834.38;;;12.67;64.94
20015;BME280;61787;42.022;23.078;2023-04-01T02:42:13;95837.06;;;12.67;64.91
20015;BME280;61787;42.022;23.078;2023-04-01T02:43:15;95827.84;;;12.68;64.86
20015;BME280;61787;42.022;23.078;2023-04-01T02:44:17;95831.72;;;12.70;64.47
20015;BME280;61787;42.022;23.078;2023-04-01T02:45:19;95833.63;;;12.70;64.29
20015;BME280;61787;42.022;23.078;2023-04-01T02:46:21;95834.78;;;12.72;63.81
20015;BME280;61787;42.022;23.078;2023-04-01T02:47:22;95842.50;;;12.74;64.33
20015;BME280;61787;42.022;23.078;2023-04-01T02:48:24;95837.13;;;12.74;64.16
20015;BME280;61787;42.022;23.078;2023-04-01T02:49:25;95849.81;;;12.73;63.84
20015;BME280;61787;42.022;23.078;2023-04-01T02:50:27;95845.56;;;12.72;64.27
20015;BME280;61787;42.022;23.078;2023-04-01T02:51:28;95844.81;;;12.72;63.69
20015;BME280;61787;42.022;23.078;2023-04-01T02:52:32;95845.53;;;12.69;63.76
20015;BME280;61787;42.022;23.078;2023-04-01T02:53:34;95847.84;;;12.70;63.71
20015;BME280;61787;42.022;23.078;2023-04-01T02:54:36;95841.38;;;12.75;64.23
20015;BME280;61787;42.022;23.078;2023-04-01T02:55:38;95835.28;;;12.81;64.00
20015;BME280;61787;42.022;23.078;2023-04-01T02:56:39;95830.34;;;12.87;63.68
20015;BME280;61787;42.022;23.078;2023-04-01T02:57:41;95828.50;;;12.98;62.97
20015;BME280;61787;42.022;23.078;2023-04-01T02:58:42;95825.81;;;12.98;63.01
20015;BME280;61787;42.022;23.078;2023-04-01T02:59:44;95823.88;;;12.95;62.72
20015;BME280;61787;42.022;23.078;2023-04-01T03:00:45;95832.69;;;12.92;62.43
20015;BME280;61787;42.022;23.078;2023-04-01T03:01:47;95839.56;;;12.90;63.16
20015;BME280;61787;42.022;23.078;2023-04-01T03:02:49;95831.88;;;12.88;63.14
20015;BME280;61787;42.022;23.078;2023-04-01T03:03:51;95839.94;;;12.88;62.64
20015;BME280;61787;42.022;23.078;2023-04-01T03:04:52;95834.94;;;12.87;63.06
20015;BME280;61787;42.022;23.078;2023-04-01T03:05:54;95831.16;;;12.95;62.72
20015;BME280;61787;42.022;23.078;2023-04-01T03:06:57;95828.91;;;13.00;63.08
20015;BME280;61787;42.022;23.078;2023-04-01T03:07:59;95823.50;;;12.97;62.50
20015;BME280;61787;42.022;23.078;2023-04-01T03:09:00;95830.00;;;12.92;62.77
20015;BME280;61787;42.022;23.078;2023-04-01T03:10:02;95835.72;;;12.87;63.00
20015;BME280;61787;42.022;23.078;2023-04-01T03:11:04;95827.66;;;12.87;62.19
20015;BME280;61787;42.022;23.078;2023-04-01T03:12:06;95837.25;;;12.88;62.10
20015;BME280;61787;42.022;23.078;2023-04-01T03:13:08;95832.69;;;12.92;62.39
20015;BME280;61787;42.022;23.078;2023-04-01T03:14:09;95828.50;;;12.98;62.20
20015;BME280;61787;42.022;23.078;2023-04-01T03:15:12;95833.94;;;13.05;62.83
20015;BME280;61787;42.022;23.078;2023-04-01T03:16:16;95817.81;;;13.05;62.56
20015;BME280;61787;42.022;23.078;2023-04-01T03:17:18;95823.19;;;13.05;62.40
20015;BME280;61787;42.022;23.078;2023-04-01T03:18:19;95823.53;;;13.04;62.77
20015;BME280;61787;42.022;23.078;2023-04-01T03:19:21;95817.03;;;13.08;62.40
20015;BME280;61787;42.022;23.078;2023-04-01T03:20:23;95812.50;;;13.12;62.13
20015;BME280;61787;42.022;23.078;2023-04-01T03:21:24;95809.47;;;13.17;61.98
20015;BME280;61787;42.022;23.078;2023-04-01T03:22:26;95807.94;;;13.16;62.96
20015;BME280;61787;42.022;23.078;2023-04-01T03:23:27;95805.91;;;13.10;62.31
20015;BME280;61787;42.022;23.078;2023-04-01T03:24:29;95807.81;;;13.06;62.38
20015;BME280;61787;42.022;23.078;2023-04-01T03:25:31;95805.91;;;13.10;62.62
20015;BME280;61787;42.022;23.078;2023-04-01T03:26:33;95802.91;;;13.15;62.28
20015;BME280;61787;42.022;23.078;2023-04-01T03:27:34;95795.25;;;13.17;62.51
20015;BME280;61787;42.022;23.078;2023-04-01T03:28:36;95799.09;;;13.19;62.06
20015;BME280;61787;42.022;23.078;2023-04-01T03:29:38;95802.97;;;13.26;61.87
20015;BME280;61787;42.022;23.078;2023-04-01T03:30:40;95797.59;;;13.22;62.03
20015;BME280;61787;42.022;23.078;2023-04-01T03:31:42;95799.84;;;13.16;62.40
20015;BME280;61787;42.022;23.078;2023-04-01T03:32:43;95797.50;;;13.11;62.56
20015;BME280;61787;42.022;23.078;2023-04-01T03:33:45;95798.59;;;13.07;62.42
20015;BME280;61787;42.022;23.078;2023-04-01T03:34:47;95794.38;;;13.09;62.55
20015;BME280;61787;42.022;23.078;2023-04-01T03:35:48;95795.91;;;13.07;62.50
20015;BME280;61787;42.022;23.078;2023-04-01T03:36:53;95797.41;;;13.04;62.35
20015;BME280;61787;42.022;23.078;2023-04-01T03:37:55;95795.84;;;13.03;62.23
20015;BME280;61787;42.022;23.078;2023-04-01T03:38:57;95795.06;;;12.99;62.63
20015;BME280;61787;42.022;23.078;2023-04-01T03:39:59;95795.06;;;12.99;62.71
20015;BME280;61787;42.022;23.078;2023-04-01T03:41:00;95789.66;;;12.92;62.11
20015;BME280;61787;42.022;23.078;2023-04-01T03:42:02;95800.00;;;12.90;62.57
20015;BME280;61787;42.022;23.078;2023-04-01T03:43:03;95796.16;;;12.91;62.95
20015;BME280;61787;42.022;23.078;2023-04-01T03:44:09;95796.91;;;12.88;62.38
20015;BME280;61787;42.022;23.078;2023-04-01T03:45:11;95792.69;;;12.91;62.29
20015;BME280;61787;42.022;23.078;2023-04-01T03:46:19;95784.59;;;12.87;62.17
20015;BME280;61787;42.022;23.078;2023-04-01T03:47:21;95792.19;;;12.78;62.66
20015;BME280;61787;42.022;23.078;2023-04-01T03:48:23;95796.41;;;12.72;62.93
20015;BME280;61787;42.022;23.078;2023-04-01T03:49:25;95793.28;;;12.70;62.37
20015;BME280;61787;42.022;23.078;2023-04-01T03:50:26;95788.66;;;12.67;63.04
20015;BME280;61787;42.022;23.078;2023-04-01T03:51:29;95792.50;;;12.66;63.26
20015;BME280;61787;42.022;23.078;2023-04-01T03:52:31;95793.22;;;12.63;62.79
20015;BME280;61787;42.022;23.078;2023-04-01T03:53:33;95790.94;;;12.65;63.27
20015;BME280;61787;42.022;23.078;2023-04-01T03:54:34;95794.03;;;12.67;63.56
20015;BME280;61787;42.022;23.078;2023-04-01T03:55:37;95794.84;;;12.71;63.36
20015;BME280;61787;42.022;23.078;2023-04-01T03:56:38;95781.78;;;12.73;63.39
20015;BME280;61787;42.022;23.078;2023-04-01T03:57:40;95779.50;;;12.75;63.20
20015;BME280;61787;42.022;23.078;2023-04-01T03:58:42;95777.94;;;12.74;63.29
20015;BME280;61787;42.022;23.078;2023-04-01T03:59:43;95788.72;;;12.77;63.52
20015;BME280;61787;42.022;23.078;2023-04-01T04:00:45;95782.22;;;12.78;63.30
20015;BME280;61787;42.022;23.078;2023-04-01T04:01:47;95773.03;;;12.83;63.64
20015;BME280;61787;42.022;23.078;2023-04-01T04:02:49;95768.81;;;12.82;63.49
20015;BME280;61787;42.022;23.078;2023-04-01T04:03:50;95774.91;;;12.79;63.73
20015;BME280;61787;42.022;23.078;2023-04-01T04:04:52;95764.94;;;12.79;63.87
20015;BME280;61787;42.022;23.078;2023-04-01T04:05:54;95775.69;;;12.76;64.21
20015;BME280;61787;42.022;23.078;2023-04-01T04:06:57;95769.09;;;12.70;64.57
20015;BME280;61787;42.022;23.078;2023-04-01T04:07:59;95765.59;;;12.66;64.21
20015;BME280;61787;42.022;23.078;2023-04-01T04:09:01;95766.75;;;12.65;64.34
20015;BME280;61787;42.022;23.078;2023-04-01T04:10:02;95757.88;;;12.61;64.97
20015;BME280;61787;42.022;23.078;2023-04-01T04:11:04;95761.34;;;12.65;64.92
20015;BME280;61787;42.022;23.078;2023-04-01T04:12:06;95757.91;;;12.68;64.73
20015;BME280;61787;42.022;23.078;2023-04-01T04:13:08;95751.41;;;12.69;64.13
20015;BME280;61787;42.022;23.078;2023-04-01T04:14:09;95747.16;;;12.68;64.31
20015;BME280;61787;42.022;23.078;2023-04-01T04:15:11;95751.03;;;12.70;63.75
20015;BME280;61787;42.022;23.078;2023-04-01T04:16:14;95751.72;;;12.60;64.30
20015;BME280;61787;42.022;23.078;2023-04-01T04:17:16;95751.66;;;12.57;64.05
20015;BME280;61787;42.022;23.078;2023-04-01T04:18:17;95753.22;;;12.58;64.22
20015;BME280;61787;42.022;23.078;2023-04-01T04:19:19;95754.75;;;12.59;64.24
20015;BME280;61787;42.022;23.078;2023-04-01T04:20:21;95752.50;;;12.61;64.09
20015;BME280;61787;42.022;23.078;2023-04-01T04:21:22;95752.41;;;12.54;64.54
20015;BME280;61787;42.022;23.078;2023-04-01T04:22:24;95755.81;;;12.47;64.49
20015;BME280;61787;42.022;23.078;2023-04-01T04:23:25;95751.53;;;12.43;64.68
20015;BME280;61787;42.022;23.078;2023-04-01T04:24:28;95750.00;;;12.42;65.29
20015;BME280;61787;42.022;23.078;2023-04-01T04:25:30;95744.94;;;12.36;65.18
20015;BME280;61787;42.022;23.078;2023-04-01T04:26:32;95746.84;;;12.32;65.51
20015;BME280;61787;42.022;23.078;2023-04-01T04:27:33;95749.16;;;12.30;65.59
20015;BME280;61787;42.022;23.078;2023-04-01T04:28:35;95746.03;;;12.28;65.74
20015;BME280;61787;42.022;23.078;2023-04-01T04:29:36;95743.78;;;12.30;66.53
20015;BME280;61787;42.022;23.078;2023-04-01T04:30:38;95747.19;;;12.27;65.82
20015;BME280;61787;42.022;23.078;2023-04-01T04:31:40;95746.78;;;12.25;66.24
20015;BME280;61787;42.022;23.078;2023-04-01T04:32:41;95754.81;;;12.22;66.33
20015;BME280;61787;42.022;23.078;2023-04-01T04:33:43;95748.25;;;12.19;67.17
20015;BME280;61787;42.022;23.078;2023-04-01T04:34:45;95743.59;;;12.16;67.28
20015;BME280;61787;42.022;23.078;2023-04-01T04:35:46;95739.41;;;12.15;67.62
20015;BME280;61787;42.022;23.078;2023-04-01T04:36:48;95736.72;;;12.15;67.77
20015;BME280;61787;42.022;23.078;2023-04-01T04:37:49;95738.22;;;12.16;67.80
20015;BME280;61787;42.022;23.078;2023-04-01T04:38:51;95736.72;;;12.15;67.01
20015;BME280;61787;42.022;23.078;2023-04-01T04:39:53;95731.28;;;12.12;67.66
20015;BME280;61787;42.022;23.078;2023-04-01T04:40:54;95729.38;;;12.12;67.81
20015;BME280;61787;42.022;23.078;2023-04-01T04:41:56;95725.91;;;12.12;66.95
20015;BME280;61787;42.022;23.078;2023-04-01T04:42:58;95725.13;;;12.11;66.59
20015;BME280;61787;42.022;23.078;2023-04-01T04:43:59;95724.75;;;12.09;67.16
20015;BME280;61787;42.022;23.078;2023-04-01T04:45:01;95723.59;;;12.10;66.60
20015;BME280;61787;42.022;23.078;2023-04-01T04:46:07;95725.91;;;12.12;67.00
20015;BME280;61787;42.022;23.078;2023-04-01T04:47:09;95731.28;;;12.12;67.09
20015;BME280;61787;42.022;23.078;2023-04-01T04:48:12;95728.22;;;12.13;66.39
20015;BME280;61787;42.022;23.078;2023-04-01T04:49:20;95731.34;;;12.15;66.54
20015;BME280;61787;42.022;23.078;2023-04-01T04:50:22;95732.13;;;12.19;66.40
20015;BME280;61787;42.022;23.078;2023-04-01T04:51:24;95731.81;;;12.24;66.04
20015;BME280;61787;42.022;23.078;2023-04-01T04:52:26;95722.59;;;12.25;65.93
20015;BME280;61787;42.022;23.078;2023-04-01T04:53:27;95713.78;;;12.28;66.29
20015;BME280;61787;42.022;23.078;2023-04-01T04:54:29;95723.78;;;12.31;66.45
20015;BME280;61787;42.022;23.078;2023-04-01T04:55:31;95725.00;;;12.37;66.39
20015;BME280;61787;42.022;23.078;2023-04-01T04:56:33;95710.84;;;12.41;66.52
20015;BME280;61787;42.022;23.078;2023-04-01T04:57:34;95713.91;;;12.43;66.09
20015;BME280;61787;42.022;23.078;2023-04-01T04:58:37;95713.53;;;12.44;66.60
20015;BME280;61787;42.022;23.078;2023-04-01T04:59:39;95713.56;;;12.48;66.18
20015;BME280;61787;42.022;23.078;2023-04-01T05:00:41;95707.81;;;12.46;65.66
20015;BME280;61787;42.022;23.078;2023-04-01T05:01:42;95705.50;;;12.48;66.06
20015;BME280;61787;42.022;23.078;2023-04-01T05:02:44;95707.13;;;12.56;65.52
20015;BME280;61787;42.022;23.078;2023-04-01T05:03:46;95705.94;;;12.57;65.86
20015;BME280;61787;42.022;23.078;2023-04-01T05:04:48;95707.91;;;12.56;65.55
20015;BME280;61787;42.022;23.078;2023-04-01T05:05:53;95698.66;;;12.54;65.71
20015;BME280;61787;42.022;23.078;2023-04-01T05:06:55;95701.75;;;12.56;65.47
20015;BME280;61787;42.022;23.078;2023-04-01T05:07:57;95699.00;;;12.52;65.45
20015;BME280;61787;42.022;23.078;2023-04-01T05:08:58;95690.16;;;12.48;65.88
20015;BME280;61787;42.022;23.078;2023-04-01T05:10:00;95693.59;;;12.45;66.00
20015;BME280;61787;42.022;23.078;2023-04-01T05:11:02;95692.78;;;12.41;66.12
20015;BME280;61787;42.022;23.078;2023-04-01T05:12:04;95705.47;;;12.41;65.76
20015;BME280;61787;42.022;23.078;2023-04-01T05:13:06;95701.59;;;12.42;66.45
20015;BME280;61787;42.022;23.078;2023-04-01T05:14:15;95698.56;;;12.47;67.05
20015;BME280;61787;42.022;23.078;2023-04-01T05:15:17;95702.47;;;12.53;66.20
20015;BME280;61787;42.022;23.078;2023-04-01T05:16:20;95704.03;;;12.54;66.25
20015;BME280;61787;42.022;23.078;2023-04-01T05:17:21;95689.88;;;12.64;65.82
20015;BME280;61787;42.022;23.078;2023-04-01T05:18:23;95695.72;;;12.73;65.76
20015;BME280;61787;42.022;23.078;2023-04-01T05:19:25;95695.34;;;12.74;65.69
20015;BME280;61787;42.022;23.078;2023-04-01T05:20:26;95681.19;;;12.81;65.28
20015;BME280;61787;42.022;23.078;2023-04-01T05:21:28;95684.28;;;12.87;65.21
20015;BME280;61787;42.022;23.078;2023-04-01T05:22:29;95685.78;;;12.84;65.73
20015;BME280;61787;42.022;23.078;2023-04-01T05:23:31;95678.09;;;12.79;65.54
20015;BME280;61787;42.022;23.078;2023-04-01T05:24:35;95681.13;;;12.74;65.78
20015;BME280;61787;42.022;23.078;2023-04-01T05:25:38;95680.31;;;12.70;65.85
20015;BME280;61787;42.022;23.078;2023-04-01T05:26:39;95683.38;;;12.65;65.62
20015;BME280;61787;42.022;23.078;2023-04-01T05:27:41;95682.56;;;12.61;65.85
20015;BME280;61787;42.022;23.078;2023-04-01T05:28:43;95676.78;;;12.59;65.53
20015;BME280;61787;42.022;23.078;2023-04-01T05:29:44;95677.56;;;12.59;66.40
20015;BME280;61787;42.022;23.078;2023-04-01T05:30:46;95672.59;;;12.65;66.00
20015;BME280;61787;42.022;23.078;2023-04-01T05:31:48;95672.25;;;12.70;66.19
20015;BME280;61787;42.022;23.078;2023-04-01T05:32:50;95678.84;;;12.76;66.35
20015;BME280;61787;42.022;23.078;2023-04-01T05:33:51;95668.88;;;12.80;66.33
20015;BME280;61787;42.022;23.078;2023-04-01T05:34:53;95674.25;;;12.83;65.68
20015;BME280;61787;42.022;23.078;2023-04-01T05:35:55;95671.56;;;12.80;65.40
20015;BME280;61787;42.022;23.078;2023-04-01T05:36:57;95672.75;;;12.86;65.59
20015;BME280;61787;42.022;23.078;2023-04-01T05:37:58;95681.31;;;13.02;65.78
20015;BME280;61787;42.022;23.078;2023-04-01T05:39:00;95671.34;;;13.06;65.24
20015;BME280;61787;42.022;23.078;2023-04-01T05:40:03;95681.78;;;13.18;65.08
20015;BME280;61787;42.022;23.078;2023-04-01T05:41:05;95677.25;;;13.30;64.79
20015;BME280;61787;42.022;23.078;2023-04-01T05:42:07;95678.47;;;13.43;63.77
20015;BME280;61787;42.022;23.078;2023-04-01T05:43:09;95673.50;;;13.52;63.74
20015;BME280;61787;42.022;23.078;2023-04-01T05:44:12;95673.94;;;13.68;62.86
20015;BME280;61787;42.022;23.078;2023-04-01T05:45:13;95672.44;;;13.74;62.89
20015;BME280;61787;42.022;23.078;2023-04-01T05:46:17;95656.25;;;13.81;62.46